Time;durP1;ratioP1;P1;durP2;ratioP2;P2;SDS_P1;SDS_P2;PMS_P1;PMS_P2;Temp;Humidity;BMP_temperature;BMP_pressure;BME280_temperature;BME280_humidity;BME280_pressure;Samples;Min_cycle;Max_cycle;Signal;HPM_P1;HPM_P2
2024/01/03 00:01:49;;;;;;;25.13;3.90;;;;;;;8.47;100.00;97813.56;6091974;23;20077;-88
2024/01/03 00:04:25;;;;;;;28.40;3.08;;;;;;;8.52;100.00;97813.97;6092076;23;20137;-89
2024/01/03 00:06:50;;;;;;;16.13;2.17;;;;;;;8.48;100.00;97804.91;6091997;23;20006;-89
2024/01/03 00:09:15;;;;;;;19.33;3.03;;;;;;;8.60;100.00;97807.31;6092125;23;20008;-88
2024/01/03 00:11:42;;;;;;;19.73;2.92;;;;;;;8.45;100.00;97805.19;6091511;23;20441;-88
2024/01/03 00:14:16;;;;;;;21.85;4.03;;;;;;;8.45;100.00;97807.75;6092119;23;20006;-88
2024/01/03 00:16:42;;;;;;;17.73;3.75;;;;;;;8.42;100.00;97810.63;6091794;23;20011;-89
2024/01/03 00:19:15;;;;;;;24.80;3.97;;;;;;;8.39;100.00;97810.03;6092000;23;20089;-88
2024/01/03 00:21:41;;;;;;;15.35;2.53;;;;;;;8.31;100.00;97800.44;6091431;23;20107;-89
2024/01/03 00:24:10;;;;;;;17.30;2.75;;;;;;;8.29;100.00;97794.63;6092280;23;20011;-89
2024/01/03 00:26:39;;;;;;;14.23;2.30;;;;;;;8.25;100.00;97795.88;6091747;23;20005;-88
2024/01/03 00:29:07;;;;;;;20.00;2.30;;;;;;;8.28;100.00;97785.31;6092481;23;20006;-88
2024/01/03 00:31:45;;;;;;;18.45;2.88;;;;;;;8.31;100.00;97778.13;6091890;23;20064;-88
2024/01/03 00:34:23;;;;;;;20.60;3.40;;;;;;;8.27;100.00;97783.72;6092059;23;20003;-89
2024/01/03 00:36:53;;;;;;;17.73;3.20;;;;;;;8.28;100.00;97772.47;6092000;23;20077;-88
2024/01/03 00:39:25;;;;;;;18.02;2.10;;;;;;;8.17;100.00;97775.19;6092590;23;20456;-88
2024/01/03 00:41:50;;;;;;;;;;;;;;;8.11;100.00;97777.38;6092504;23;20489;-89
2024/01/03 00:44:16;;;;;;;26.30;3.58;;;;;;;8.03;100.00;97784.16;6091884;23;19917;-89
2024/01/03 00:46:41;;;;;;;21.55;2.63;;;;;;;8.17;100.00;97765.75;6091863;23;20025;-89
2024/01/03 00:49:06;;;;;;;13.70;2.33;;;;;;;8.10;100.00;97768.06;6091970;23;19999;-88
2024/01/03 00:51:32;;;;;;;14.35;2.08;;;;;;;8.10;100.00;97773.19;6091695;23;20014;-89
2024/01/03 00:53:58;;;;;;;17.50;3.33;;;;;;;8.12;100.00;97768.72;6090419;23;20077;-88
2024/01/03 00:56:23;;;;;;;21.80;3.35;;;;;;;8.12;100.00;97779.00;6089860;23;20034;-89
2024/01/03 00:58:49;;;;;;;15.07;2.45;;;;;;;8.10;100.00;97769.81;6091581;23;19999;-88
2024/01/03 01:01:15;;;;;;;18.05;2.40;;;;;;;8.13;100.00;97772.91;6091732;23;20011;-89
2024/01/03 01:03:41;;;;;;;16.35;2.17;;;;;;;8.20;100.00;97770.59;6091510;23;20006;-89
2024/01/03 01:06:07;;;;;;;22.20;2.58;;;;;;;8.13;100.00;97769.53;6090144;23;20037;-89
2024/01/03 01:08:33;;;;;;;11.02;1.95;;;;;;;8.15;100.00;97763.31;6091757;23;20010;-89
2024/01/03 01:10:58;;;;;;;18.17;3.63;;;;;;;8.22;100.00;97762.72;6091793;23;20014;-89
2024/01/03 01:13:23;;;;;;;29.00;3.08;;;;;;;8.17;100.00;97764.91;6091152;23;20002;-88
2024/01/03 01:15:49;;;;;;;30.13;3.40;;;;;;;8.20;100.00;97772.38;6091362;23;20038;-89
2024/01/03 01:18:14;;;;;;;19.85;2.80;;;;;;;8.16;100.00;97758.97;6091706;23;19998;-89
2024/01/03 01:20:39;;;;;;;24.35;3.30;;;;;;;8.16;100.00;97761.53;6090376;23;20003;-89
2024/01/03 01:23:05;;;;;;;18.42;2.15;;;;;;;8.19;100.00;97768.16;6091654;23;20006;-89
2024/01/03 01:25:30;;;;;;;14.85;1.75;;;;;;;8.12;100.00;97771.28;6090234;23;20014;-89
2024/01/03 01:27:56;;;;;;;17.52;3.00;;;;;;;8.09;100.00;97760.47;6091699;23;20013;-88
2024/01/03 01:30:21;;;;;;;19.70;3.05;;;;;;;8.12;100.00;97755.88;6089916;23;20020;-89
2024/01/03 01:32:48;;;;;;;16.65;2.80;;;;;;;8.08;100.00;97758.88;6091378;23;20003;-89
2024/01/03 01:35:14;;;;;;;17.48;2.45;;;;;;;8.08;100.00;97766.56;6091614;23;20010;-89
2024/01/03 01:37:39;;;;;;;14.23;2.30;;;;;;;8.08;100.00;97762.25;6091644;23;20053;-88
2024/01/03 01:40:06;;;;;;;20.55;2.28;;;;;;;8.12;100.00;97761.03;6090934;23;20445;-89
2024/01/03 01:42:32;;;;;;;19.00;2.63;;;;;;;8.18;100.00;97756.28;6091562;23;20006;-89
2024/01/03 01:44:57;;;;;;;14.52;2.80;;;;;;;8.30;100.00;97791.13;6091788;23;20002;-88
2024/01/03 01:47:23;;;;;;;21.42;3.28;;;;;;;8.36;100.00;97778.56;6091559;23;20437;-88
2024/01/03 01:49:50;;;;;;;17.20;2.50;;;;;;;8.28;100.00;97783.56;6091549;23;20005;-88
2024/01/03 01:52:17;;;;;;;12.45;2.47;;;;;;;8.35;100.00;97776.09;6091135;23;20376;-89
2024/01/03 01:54:42;;;;;;;20.85;2.65;;;;;;;8.31;100.00;97777.31;6090897;23;20093;-89
2024/01/03 01:57:09;;;;;;;19.83;3.05;;;;;;;8.26;100.00;97775.16;6091364;23;20029;-89
2024/01/03 01:59:34;;;;;;;23.13;2.85;;;;;;;8.26;100.00;97766.66;6091535;23;20010;-89
2024/01/03 02:02:01;;;;;;;19.92;2.95;;;;;;;8.19;100.00;97765.59;6090264;23;20369;-88
2024/01/03 02:04:27;;;;;;;16.10;2.70;;;;;;;8.17;100.00;97764.91;6091440;23;20003;-89
2024/01/03 02:06:53;;;;;;;17.52;2.70;;;;;;;8.17;100.00;97770.06;6091523;23;20002;-88
2024/01/03 02:09:18;;;;;;;21.30;2.75;;;;;;;8.13;100.00;97760.06;6091286;23;20013;-89
2024/01/03 02:11:48;;;;;;;20.67;3.78;;;;;;;8.22;100.00;97763.56;6091583;23;20006;-88
2024/01/03 02:14:13;;;;;;;28.38;3.70;;;;;;;8.17;100.00;97759.78;6091609;23;20276;-89
2024/01/03 02:16:38;;;;;;;23.85;3.00;;;;;;;8.24;100.00;97763.41;6091489;23;20549;-89
2024/01/03 02:19:04;;;;;;;18.48;2.58;;;;;;;8.23;100.00;97769.50;6091495;23;20120;-89
2024/01/03 02:21:30;;;;;;;20.55;3.00;;;;;;;8.26;100.00;97769.22;6089791;23;20014;-88
2024/01/03 02:23:55;;;;;;;23.17;3.50;;;;;;;8.29;100.00;97776.66;6091370;23;20009;-88
2024/01/03 02:26:21;;;;;;;16.05;2.83;;;;;;;8.24;100.00;97778.81;6091255;23;19999;-88
2024/01/03 02:28:46;;;;;;;27.60;3.17;;;;;;;8.17;100.00;97788.03;6091289;23;20013;-89
2024/01/03 02:31:12;;;;;;;24.15;3.13;;;;;;;8.15;100.00;97798.47;6089466;23;20045;-87
2024/01/03 02:33:37;;;;;;;16.42;3.08;;;;;;;8.19;100.00;97786.16;6091371;23;20002;-89
2024/01/03 02:36:04;;;;;;;11.95;1.77;;;;;;;8.18;100.00;97789.69;6091428;23;20011;-88
2024/01/03 02:38:29;;;;;;;21.42;3.47;;;;;;;8.12;100.00;97784.13;6089179;23;20014;-88
2024/01/03 02:40:54;;;;;;;7.63;1.38;;;;;;;8.30;100.00;97791.13;6090952;23;20002;-88
2024/01/03 02:43:20;;;;;;;5.07;1.33;;;;;;;8.17;100.00;97788.03;6091152;23;20085;-88
2024/01/03 02:45:45;;;;;;;13.70;1.85;;;;;;;8.20;100.00;97795.50;6091742;23;20387;-88
2024/01/03 02:48:11;;;;;;;10.25;1.45;;;;;;;8.22;100.00;97789.25;6092360;23;20402;-88
2024/01/03 02:50:36;;;;;;;16.17;1.70;;;;;;;8.17;100.00;97806.03;6092382;23;19999;-88
2024/01/03 02:53:02;;;;;;;7.03;1.48;;;;;;;8.16;100.00;97794.94;6091558;23;20018;-88
2024/01/03 02:55:27;;;;;;;14.02;1.67;;;;;;;8.19;100.00;97796.41;6092146;23;20006;-88
2024/01/03 02:57:53;;;;;;;11.75;3.05;;;;;;;8.12;100.00;97799.56;6092276;23;20003;-88
2024/01/03 03:00:18;;;;;;;9.52;1.13;;;;;;;8.11;100.00;97800.47;6092393;23;20025;-88
2024/01/03 03:02:44;;;;;;;5.43;1.02;;;;;;;8.05;100.00;97793.34;6092376;23;20011;-89
2024/01/03 03:05:09;;;;;;;7.88;2.05;;;;;;;8.03;100.00;97797.81;6092386;23;20002;-90
2024/01/03 03:07:34;;;;;;;9.18;2.00;;;;;;;8.05;100.00;97797.69;6092094;23;20003;-89
2024/01/03 03:10:00;;;;;;;14.40;1.45;;;;;;;8.00;100.00;97794.69;6091265;23;20003;-88
2024/01/03 03:12:26;;;;;;;5.85;1.27;;;;;;;7.96;100.00;97793.34;6091913;23;20014;-89
2024/01/03 03:14:51;;;;;;;9.05;1.15;;;;;;;7.94;100.00;97798.63;6091549;23;20338;-89
2024/01/03 03:17:17;;;;;;;7.10;0.77;;;;;;;7.83;100.00;97797.00;6092068;23;20010;-88
2024/01/03 03:19:43;;;;;;;15.45;1.58;;;;;;;7.89;100.00;97793.06;6091957;23;20405;-88
2024/01/03 03:22:08;;;;;;;7.35;1.05;;;;;;;7.99;100.00;97787.94;6092207;23;20422;-88
2024/01/03 03:24:33;;;;;;;14.23;1.38;;;;;;;7.99;100.00;97791.31;6092034;23;20414;-89
2024/01/03 03:26:59;;;;;;;16.95;1.38;;;;;;;7.98;100.00;97791.47;6090287;23;20085;-88
2024/01/03 03:29:24;;;;;;;12.98;1.10;;;;;;;7.97;100.00;97795.78;6092062;23;20615;-88
2024/01/03 03:31:50;;;;;;;10.15;1.63;;;;;;;7.93;100.00;97799.56;6092077;23;20030;-88
2024/01/03 03:34:17;;;;;;;15.25;2.05;;;;;;;7.97;100.00;97805.22;6091926;23;20006;-88
2024/01/03 03:36:42;;;;;;;11.18;1.63;;;;;;;7.86;100.00;97808.78;6092007;23;20002;-88
2024/01/03 03:39:08;;;;;;;7.85;1.38;;;;;;;7.91;100.00;97802.28;6090848;23;20014;-88
2024/01/03 03:41:35;;;;;;;18.65;2.17;;;;;;;7.86;100.00;97804.44;6090634;23;20002;-88
2024/01/03 03:44:00;;;;;;;22.25;1.85;;;;;;;7.92;100.00;97803.91;6091663;23;20417;-88
2024/01/03 03:46:26;;;;;;;13.18;2.08;;;;;;;7.92;100.00;97813.34;6091777;23;20009;-88
2024/01/03 03:48:51;;;;;;;12.23;1.45;;;;;;;7.89;100.00;97800.78;6092018;23;20026;-88
2024/01/03 03:51:17;;;;;;;14.73;1.63;;;;;;;7.87;100.00;97808.63;6091970;23;20010;-88
2024/01/03 03:53:42;;;;;;;11.68;2.00;;;;;;;7.93;100.00;97805.50;6091981;23;20436;-89
2024/01/03 03:56:07;;;;;;;12.15;1.48;;;;;;;7.94;100.00;97811.47;6091544;23;20006;-88
2024/01/03 03:58:33;;;;;;;18.40;2.25;;;;;;;7.85;100.00;97814.84;6091409;23;20071;-89
2024/01/03 04:00:58;;;;;;;12.25;2.20;;;;;;;7.85;100.00;97813.09;6091985;23;20429;-89
2024/01/03 04:03:23;;;;;;;9.57;1.80;;;;;;;7.93;100.00;97815.00;6091988;23;20002;-89
2024/01/03 04:05:49;;;;;;;10.25;2.13;;;;;;;7.87;100.00;97812.94;6091928;23;20030;-89
2024/01/03 04:08:15;;;;;;;9.20;1.63;;;;;;;7.83;100.00;97809.03;6089630;23;19999;-88
2024/01/03 04:10:41;;;;;;;16.88;2.13;;;;;;;7.79;100.00;97807.69;6091757;23;20002;-88
2024/01/03 04:13:06;;;;;;;12.50;1.70;;;;;;;7.88;100.00;97812.00;6091575;23;20014;-88
2024/01/03 04:15:32;;;;;;;15.10;1.42;;;;;;;7.81;100.00;97795.53;6091734;23;20137;-88
2024/01/03 04:17:58;;;;;;;15.10;2.45;;;;;;;7.78;100.00;97795.78;6091685;23;20010;-88
2024/01/03 04:20:23;;;;;;;16.05;1.90;;;;;;;7.80;100.00;97797.25;6091926;23;20003;-88
2024/01/03 04:22:48;;;;;;;17.65;2.42;;;;;;;7.77;100.00;97794.16;6091944;23;20094;-88
2024/01/03 04:25:14;;;;;;;12.32;1.70;;;;;;;7.74;100.00;97791.88;6091722;23;20014;-89
2024/01/03 04:27:39;;;;;;;15.82;1.60;;;;;;;7.81;100.00;97796.34;6092002;23;20003;-88
2024/01/03 04:30:05;;;;;;;16.60;3.00;;;;;;;7.69;100.00;97787.16;6091279;23;20009;-88
2024/01/03 04:32:31;;;;;;;14.32;1.80;;;;;;;7.72;100.00;97803.06;6091587;23;20007;-88
2024/01/03 04:34:57;;;;;;;16.17;2.03;;;;;;;7.68;100.00;97796.63;6091789;23;20083;-88
2024/01/03 04:37:22;;;;;;;14.52;1.90;;;;;;;7.73;100.00;97791.06;6091834;23;20104;-89
2024/01/03 04:39:47;;;;;;;21.58;2.85;;;;;;;7.74;100.00;97789.31;6091966;23;20006;-89
2024/01/03 04:42:13;;;;;;;19.52;2.00;;;;;;;7.76;100.00;97788.22;6091838;23;20003;-88
2024/01/03 04:44:40;;;;;;;18.45;1.60;;;;;;;7.73;100.00;97788.50;6091842;23;20196;-88
2024/01/03 04:47:06;;;;;;;19.35;2.47;;;;;;;7.79;100.00;97792.28;6091849;23;20002;-88
2024/01/03 04:49:31;;;;;;;19.73;2.40;;;;;;;7.74;100.00;97789.31;6091856;23;20011;-88
2024/01/03 04:51:57;;;;;;;21.73;2.53;;;;;;;7.82;100.00;97786.88;6091600;23;20006;-88
2024/01/03 04:54:22;;;;;;;19.35;3.72;;;;;;;7.72;100.00;97792.00;6092112;23;20064;-88
2024/01/03 04:56:48;;;;;;;29.77;4.85;;;;;;;7.70;100.00;97789.56;6091750;23;19999;-88
2024/01/03 04:59:13;;;;;;;23.45;2.58;;;;;;;7.69;100.00;97790.50;6091917;23;19999;-88
2024/01/03 05:01:42;;;;;;;19.58;2.83;;;;;;;7.69;100.00;97798.22;6091236;23;20067;-89
2024/01/03 05:04:08;;;;;;;16.08;2.40;;;;;;;7.71;100.00;97796.34;6091546;23;20021;-88
2024/01/03 05:06:35;;;;;;;14.45;3.05;;;;;;;7.78;100.00;97798.34;6091693;23;20009;-89
2024/01/03 05:09:00;;;;;;;17.73;1.98;;;;;;;7.69;100.00;97808.50;6091925;23;20002;-88
2024/01/03 05:11:25;;;;;;;21.63;2.45;;;;;;;7.75;100.00;97801.19;6089915;23;20036;-88
2024/01/03 05:13:51;;;;;;;23.25;2.92;;;;;;;7.72;100.00;97815.91;6091962;23;20029;-88
2024/01/03 05:16:17;;;;;;;18.60;2.47;;;;;;;7.73;100.00;97819.31;6091514;23;20003;-88
2024/01/03 05:18:42;;;;;;;20.55;3.85;;;;;;;7.87;100.00;97821.44;6091881;23;20011;-88
2024/01/03 05:21:08;;;;;;;21.27;2.42;;;;;;;7.88;100.00;97817.16;6091451;23;20030;-88
2024/01/03 05:23:33;;;;;;;17.13;2.70;;;;;;;7.85;100.00;97809.69;6091648;23;20007;-88
2024/01/03 05:25:59;;;;;;;24.65;3.55;;;;;;;7.76;100.00;97807.97;6091672;23;20003;-89
2024/01/03 05:28:24;;;;;;;23.85;4.47;;;;;;;7.83;100.00;97806.47;6091997;23;20022;-89
2024/01/03 05:30:49;;;;;;;19.88;3.15;;;;;;;7.79;100.00;97807.69;6090739;23;20007;-88
2024/01/03 05:33:15;;;;;;;20.38;2.45;;;;;;;7.87;100.00;97805.25;6091373;23;20030;-88
2024/01/03 05:35:40;;;;;;;21.40;5.10;;;;;;;7.91;100.00;97807.41;6091741;23;20009;-88
2024/01/03 05:38:06;;;;;;;22.73;2.85;;;;;;;7.88;100.00;97807.69;6091723;23;20423;-89
2024/01/03 05:40:31;;;;;;;20.92;2.40;;;;;;;7.85;100.00;97809.69;6091703;23;20006;-88
2024/01/03 05:42:56;;;;;;;23.52;2.72;;;;;;;7.92;100.00;97814.19;6089981;23;20014;-89
2024/01/03 05:45:22;;;;;;;17.40;2.50;;;;;;;8.03;100.00;97815.78;6091757;23;20010;-88
2024/01/03 05:47:47;;;;;;;23.52;3.40;;;;;;;7.92;100.00;97818.47;6091666;23;20445;-88
2024/01/03 05:50:13;;;;;;;21.23;2.60;;;;;;;7.85;100.00;97812.25;6091910;23;20006;-88
2024/01/03 05:52:38;;;;;;;21.60;3.17;;;;;;;7.81;100.00;97822.00;6091576;23;20006;-88
2024/01/03 05:55:06;;;;;;;22.33;4.03;;;;;;;7.74;100.00;97823.50;6089971;23;20426;-88
2024/01/03 05:57:32;;;;;;;23.02;4.15;;;;;;;7.74;100.00;97817.56;6091670;23;20006;-89
2024/01/03 05:59:57;;;;;;;26.95;3.30;;;;;;;7.83;100.00;97824.44;6091197;23;20443;-88
2024/01/03 06:02:23;;;;;;;28.00;3.95;;;;;;;7.72;100.00;97808.22;6091474;23;20013;-88
2024/01/03 06:04:48;;;;;;;25.60;3.83;;;;;;;7.70;100.00;97822.94;6090779;23;20097;-88
2024/01/03 06:07:13;;;;;;;27.27;3.33;;;;;;;7.69;100.00;97829.03;6091690;23;20003;-89
2024/01/03 06:09:39;;;;;;;28.15;6.63;;;;;;;7.66;100.00;97824.16;6091422;23;20009;-88
2024/01/03 06:12:04;;;;;;;23.42;3.70;;;;;;;7.67;100.00;97827.53;6091495;23;20010;-89
2024/01/03 06:14:30;;;;;;;35.40;3.72;;;;;;;7.72;100.00;97823.63;6091395;23;20013;-88
2024/01/03 06:16:55;;;;;;;35.30;4.68;;;;;;;7.67;100.00;97818.06;6091260;23;20010;-88
2024/01/03 06:19:20;;;;;;;37.10;4.60;;;;;;;7.64;100.00;97820.91;6090694;23;20056;-89
2024/01/03 06:21:46;;;;;;;27.17;4.13;;;;;;;7.69;100.00;97817.94;6091450;23;20440;-88
2024/01/03 06:24:11;;;;;;;34.28;4.70;;;;;;;7.74;100.00;97820.13;6091525;23;20002;-89
2024/01/03 06:26:37;;;;;;;25.38;3.72;;;;;;;7.82;100.00;97827.94;6091227;23;20371;-88
2024/01/03 06:29:02;;;;;;;31.33;4.22;;;;;;;7.78;100.00;97834.28;6089809;23;20006;-89
2024/01/03 06:31:27;;;;;;;32.70;3.70;;;;;;;7.81;100.00;97831.47;6088735;23;20010;-89
2024/01/03 06:33:53;;;;;;;26.25;5.90;;;;;;;7.81;100.00;97839.19;6091067;23;20078;-88
2024/01/03 06:36:19;;;;;;;28.15;3.50;;;;;;;7.88;100.00;97838.50;6091306;23;20002;-88
2024/01/03 06:38:44;;;;;;;30.80;4.10;;;;;;;7.81;100.00;97834.84;6091200;23;19999;-88
2024/01/03 06:41:09;;;;;;;25.02;2.60;;;;;;;7.85;100.00;97835.38;6090971;23;20011;-88
2024/01/03 06:43:35;;;;;;;26.67;4.82;;;;;;;7.91;100.00;97833.09;6091257;23;20060;-88
2024/01/03 06:46:00;;;;;;;20.33;2.97;;;;;;;7.88;100.00;97838.50;6090875;23;20503;-89
2024/01/03 06:48:26;;;;;;;30.13;2.88;;;;;;;7.91;100.00;97843.38;6091169;23;20007;-88
2024/01/03 06:50:51;;;;;;;17.42;3.05;;;;;;;7.83;100.00;97839.88;6091005;23;20369;-88
2024/01/03 06:53:16;;;;;;;15.57;2.13;;;;;;;7.95;100.00;97841.34;6091055;23;20010;-88
2024/01/03 06:55:42;;;;;;;12.45;2.20;;;;;;;7.95;100.00;97833.66;6090719;23;20044;-88
2024/01/03 06:58:07;;;;;;;20.50;2.42;;;;;;;7.94;100.00;97834.56;6090966;23;20007;-89
2024/01/03 07:00:32;;;;;;;19.52;2.65;;;;;;;7.91;100.00;97833.09;6090447;23;20014;-88
2024/01/03 07:02:58;;;;;;;23.65;3.05;;;;;;;7.85;100.00;97822.53;6090689;23;20033;-88
2024/01/03 07:05:23;;;;;;;18.73;2.20;;;;;;;7.93;100.00;97820.94;6090630;23;20064;-88
2024/01/03 07:07:48;;;;;;;14.65;2.05;;;;;;;7.87;100.00;97825.78;6090614;23;20338;-88
2024/01/03 07:10:14;;;;;;;15.18;2.30;;;;;;;7.81;100.00;97826.34;6090695;23;20030;-89
2024/01/03 07:12:39;;;;;;;14.68;2.28;;;;;;;7.77;100.00;97824.97;6090848;23;20013;-88
2024/01/03 07:15:06;;;;;;;20.73;2.25;;;;;;;7.78;100.00;97826.59;6090828;23;20148;-88
2024/01/03 07:17:31;;;;;;;11.43;1.98;;;;;;;7.72;100.00;97826.19;6089342;23;20006;-88
2024/01/03 07:19:57;;;;;;;18.35;1.95;;;;;;;7.76;100.00;97818.22;6090850;23;20037;-88
2024/01/03 07:22:23;;;;;;;17.52;3.03;;;;;;;7.75;100.00;97826.88;6089254;23;20191;-89
2024/01/03 07:24:48;;;;;;;22.75;3.22;;;;;;;7.72;100.00;97828.75;6088789;23;20349;-89
2024/01/03 07:27:15;;;;;;;12.57;1.98;;;;;;;7.74;100.00;97830.38;6091090;23;20133;-89
2024/01/03 07:29:41;;;;;;;13.60;2.58;;;;;;;7.76;100.00;97838.78;6089194;23;20010;-88
2024/01/03 07:32:06;;;;;;;22.83;2.80;;;;;;;7.72;100.00;97839.03;6091501;23;20373;-89
2024/01/03 07:34:32;;;;;;;26.55;3.55;;;;;;;7.68;100.00;97842.81;6091803;23;20002;-89
2024/01/03 07:36:57;;;;;;;16.55;2.97;;;;;;;7.76;100.00;97851.63;6091951;23;20450;-89
2024/01/03 07:39:22;;;;;;;15.00;2.83;;;;;;;7.71;100.00;97847.69;6092277;23;20007;-89
2024/01/03 07:41:49;;;;;;;19.30;3.10;;;;;;;7.69;100.00;97836.72;6092017;23;20013;-88
2024/01/03 07:44:14;;;;;;;20.10;3.28;;;;;;;7.68;100.00;97837.69;6092442;23;20010;-89
2024/01/03 07:46:40;;;;;;;29.92;3.97;;;;;;;7.78;100.00;97811.19;6090235;23;20387;-89
2024/01/03 07:49:05;;;;;;;32.17;4.85;;;;;;;7.67;100.00;97824.97;6090364;23;20376;-88
2024/01/03 07:51:30;;;;;;;33.17;5.90;;;;;;;7.63;100.00;97829.56;6092359;23;20038;-88
2024/01/03 07:53:56;;;;;;;29.77;4.22;;;;;;;7.63;100.00;97832.16;6091356;23;20002;-89
2024/01/03 07:56:21;;;;;;;25.55;3.53;;;;;;;7.67;100.00;97830.91;6091295;23;20025;-89
2024/01/03 07:58:46;;;;;;;26.30;3.80;;;;;;;7.71;100.00;97837.41;6091951;23;20003;-89
2024/01/03 08:01:12;;;;;;;50.05;6.72;;;;;;;7.72;100.00;97823.63;6092194;23;20013;-88
2024/01/03 08:03:37;;;;;;;21.45;2.67;;;;;;;7.71;100.00;97832.28;6091964;23;20430;-89
2024/01/03 08:06:03;;;;;;;29.65;4.63;;;;;;;7.68;100.00;97832.56;6090404;23;20030;-89
2024/01/03 08:08:28;;;;;;;24.15;3.22;;;;;;;7.69;100.00;97829.03;6091995;23;20053;-89
2024/01/03 08:10:54;;;;;;;24.10;3.85;;;;;;;7.70;100.00;97820.38;6092075;23;20010;-88
2024/01/03 08:13:19;;;;;;;26.40;3.38;;;;;;;7.71;100.00;97816.06;6091877;23;20437;-88
2024/01/03 08:15:44;;;;;;;27.33;3.70;;;;;;;7.71;100.00;97813.50;6091635;23;20011;-89
2024/01/03 08:18:10;;;;;;;23.50;4.05;;;;;;;7.72;100.00;97823.63;6092042;23;20002;-88
2024/01/03 08:20:35;;;;;;;26.55;3.20;;;;;;;7.71;100.00;97816.88;6091746;23;20009;-88
2024/01/03 08:23:00;;;;;;;26.25;3.15;;;;;;;7.76;100.00;97823.38;6091976;23;20006;-89
2024/01/03 08:25:26;;;;;;;25.98;3.63;;;;;;;7.91;100.00;97868.25;6091378;23;20384;-89
2024/01/03 08:27:51;;;;;;;17.20;3.85;;;;;;;7.85;100.00;97873.91;6091982;23;20430;-91
2024/01/03 08:30:17;;;;;;;2.90;0.70;;;;;;;7.60;100.00;97859.81;6090310;23;20010;-90
2024/01/03 08:32:42;;;;;;;10.32;0.85;;;;;;;7.42;100.00;97869.94;6091677;23;20077;-89
2024/01/03 08:35:08;;;;;;;4.60;0.60;;;;;;;7.39;100.00;97865.88;6091839;23;20030;-90
2024/01/03 08:37:33;;;;;;;2.35;0.50;;;;;;;7.44;100.00;97866.28;6090066;23;20006;-89
2024/01/03 08:40:01;;;;;;;6.70;0.80;;;;;;;7.40;100.00;97853.84;6094933;23;20002;-89
2024/01/03 08:42:26;;;;;;;5.40;0.60;;;;;;;7.43;100.00;97851.00;6091604;23;20007;-90
2024/01/03 08:44:52;;;;;;;2.67;0.50;;;;;;;7.38;100.00;97858.28;6089919;23;20002;-89
2024/01/03 08:47:17;;;;;;;3.58;0.60;;;;;;;7.36;100.00;97867.88;6091673;23;20011;-88
2024/01/03 08:49:43;;;;;;;7.07;0.70;;;;;;;7.44;100.00;97850.06;6091771;23;20053;-89
2024/01/03 08:52:09;;;;;;;2.75;0.40;;;;;;;7.42;100.00;97849.41;6091581;23;20454;-90
2024/01/03 08:54:35;;;;;;;2.92;0.32;;;;;;;7.28;100.00;97840.31;6091133;23;20008;-89
2024/01/03 08:57:00;;;;;;;4.70;0.47;;;;;;;7.53;100.00;97854.41;6091239;23;20011;-88
2024/01/03 08:59:25;;;;;;;5.13;0.52;;;;;;;7.49;100.00;97871.03;6091418;23;20010;-92
2024/01/03 09:01:52;;;;;;;14.77;0.98;;;;;;;7.42;100.00;97878.44;6090366;23;20003;-88
2024/01/03 09:04:18;;;;;;;4.20;0.70;;;;;;;7.33;100.00;97860.44;6091777;23;20014;-86
2024/01/03 09:06:43;;;;;;;18.55;1.30;;;;;;;7.34;100.00;97869.75;6091693;23;20002;-86
2024/01/03 09:09:09;;;;;;;3.55;0.68;;;;;;;7.30;100.00;97869.22;6092023;23;20032;-86
2024/01/03 09:11:34;;;;;;;3.53;0.50;;;;;;;7.31;100.00;97855.44;6091714;23;20272;-86
2024/01/03 09:14:00;;;;;;;4.88;0.30;;;;;;;7.32;100.00;97851.13;6091696;23;20007;-87
2024/01/03 09:16:26;;;;;;;5.35;0.40;;;;;;;7.26;100.00;97853.25;6091746;23;20102;-86
2024/01/03 09:18:52;;;;;;;0.50;0.20;;;;;;;7.11;100.00;97856.31;6091386;23;20494;-86
2024/01/03 09:21:17;;;;;;;3.50;0.25;;;;;;;7.08;100.00;97852.25;6089423;23;20007;-88
2024/01/03 09:23:43;;;;;;;1.50;0.30;;;;;;;7.04;100.00;97859.38;6090925;23;20444;-88
2024/01/03 09:26:11;;;;;;;3.08;0.30;;;;;;;7.03;100.00;97873.16;6091273;23;20009;-87
2024/01/03 09:28:38;;;;;;;1.23;0.10;;;;;;;7.11;100.00;97862.25;6091815;23;20006;-87
2024/01/03 09:31:06;;;;;;;1.30;0.10;;;;;;;7.12;100.00;97855.38;6091260;23;20081;-87
2024/01/03 09:33:32;;;;;;;2.20;0.30;;;;;;;6.96;100.00;97855.88;6091705;23;20007;-87
2024/01/03 09:35:57;;;;;;;6.35;3.10;;;;;;;6.98;100.00;97839.41;6090642;23;20494;-88
2024/01/03 09:38:22;;;;;;;4.07;0.35;;;;;;;7.02;100.00;97842.50;6091637;23;20006;-88
2024/01/03 09:40:48;;;;;;;1.27;0.52;;;;;;;7.05;100.00;97845.66;6091424;23;20421;-88
2024/01/03 09:43:14;;;;;;;0.30;0.10;;;;;;;7.12;100.00;97845.94;6091968;23;20014;-85
2024/01/03 09:45:40;;;;;;;2.47;0.40;;;;;;;7.12;100.00;97839.97;6091167;23;20002;-85
2024/01/03 09:48:08;;;;;;;1.55;0.20;;;;;;;7.14;100.00;97838.91;6091294;23;20006;-85
2024/01/03 09:50:33;;;;;;;3.03;0.43;;;;;;;7.20;100.00;97840.16;6088909;23;20310;-87
2024/01/03 09:53:00;;;;;;;1.30;0.20;;;;;;;7.33;100.00;97845.03;6091324;23;20013;-85
2024/01/03 09:55:27;;;;;;;2.95;0.43;;;;;;;7.40;100.00;97849.50;6089853;23;20014;-86
2024/01/03 09:57:54;;;;;;;3.78;0.40;;;;;;;7.56;100.00;97848.19;6091543;23;20443;-86
2024/01/03 10:00:20;;;;;;;7.68;0.45;;;;;;;7.67;100.00;97848.88;6091209;23;20086;-86
2024/01/03 10:02:47;;;;;;;2.85;0.50;;;;;;;7.87;100.00;97838.63;6091415;23;20026;-84
2024/01/03 10:05:22;;;;;;;6.43;0.68;;;;;;;7.87;100.00;97836.06;6090260;23;20009;-85
2024/01/03 10:07:48;;;;;;;5.43;0.60;;;;;;;7.77;100.00;97840.38;6091428;23;20003;-85
2024/01/03 10:10:29;;;;;;;4.95;0.90;;;;;;;7.74;100.00;97849.16;6091078;23;20009;-86
2024/01/03 10:12:54;;;;;;;8.55;0.77;;;;;;;7.70;100.00;97845.22;6090961;23;20017;-85
2024/01/03 10:15:20;;;;;;;5.03;0.77;;;;;;;7.76;100.00;97846.47;6090689;23;20077;-85
2024/01/03 10:17:46;;;;;;;3.42;0.80;;;;;;;7.74;100.00;97856.06;6090952;23;20093;-85
2024/01/03 10:20:29;;;;;;;4.50;1.05;;;;;;;7.76;100.00;97857.56;6089896;23;20045;-87
2024/01/03 10:23:15;;;;;;;6.82;1.80;;;;;;;7.79;100.00;97866.75;6090987;23;20010;-86
2024/01/03 10:25:42;;;;;;;17.17;2.70;;;;;;;7.72;100.00;97880.09;6089259;23;20010;-86
2024/01/03 10:28:10;;;;;;;14.35;2.20;;;;;;;7.85;100.00;97879.88;6090992;23;20341;-86
2024/01/03 10:30:36;;;;;;;15.27;2.30;;;;;;;7.91;100.00;97863.09;6090740;23;20007;-86
2024/01/03 10:33:08;;;;;;;20.23;2.15;;;;;;;8.04;100.00;97871.34;6091183;23;20311;-86
2024/01/03 10:35:37;;;;;;;11.25;2.10;;;;;;;8.04;100.00;97873.91;6088469;23;20341;-86
2024/01/03 10:38:03;;;;;;;10.40;1.45;;;;;;;8.08;100.00;97880.41;6091047;23;20014;-85
2024/01/03 10:40:34;;;;;;;22.30;2.78;;;;;;;8.14;100.00;97874.75;6090758;23;19999;-87
2024/01/03 10:43:00;;;;;;;16.23;1.85;;;;;;;8.21;100.00;97874.19;6091151;23;20057;-85
2024/01/03 10:45:27;;;;;;;19.92;2.45;;;;;;;8.24;100.00;97879.88;6090874;23;20012;-85
2024/01/03 10:47:53;;;;;;;12.38;2.00;;;;;;;8.18;100.00;97877.03;6090989;23;20007;-85
2024/01/03 10:50:19;;;;;;;18.75;2.75;;;;;;;8.24;100.00;97881.59;6088079;23;20049;-85
2024/01/03 10:52:45;;;;;;;22.63;2.78;;;;;;;8.25;100.00;97883.25;6091074;23;20014;-86
2024/01/03 10:55:24;;;;;;;15.95;2.90;;;;;;;8.32;100.00;97884.31;6090183;23;20089;-84
2024/01/03 10:57:56;;;;;;;21.25;4.13;;;;;;;8.29;100.00;97923.13;6091249;23;20010;-85
2024/01/03 11:00:48;;;;;;;9.68;1.17;;;;;;;8.09;100.00;97914.59;6091218;23;20011;-84
2024/01/03 11:03:22;;;;;;;3.17;0.85;;;;;;;8.07;100.00;97901.91;6117795;23;20007;-86
2024/01/03 11:06:05;;;;;;;8.93;0.57;;;;;;;7.97;100.00;97906.22;6089837;23;20034;-86
2024/01/03 11:08:42;;;;;;;7.68;0.98;;;;;;;7.64;100.00;97892.78;6092156;23;20429;-84
2024/01/03 11:11:08;;;;;;;4.30;0.70;;;;;;;7.59;100.00;97896.72;6091838;23;20077;-85
2024/01/03 11:13:34;;;;;;;4.35;0.90;;;;;;;7.68;100.00;97889.03;6091746;23;20017;-84
2024/01/03 11:16:02;;;;;;;4.93;0.60;;;;;;;7.74;100.00;97902.28;6091312;23;20056;-85
2024/01/03 11:18:57;;;;;;;1.58;0.40;;;;;;;7.88;100.00;97902.69;6091387;23;20177;-85
2024/01/03 11:21:30;;;;;;;2.38;0.38;;;;;;;7.92;100.00;97906.63;6104295;23;20010;-85
2024/01/03 11:23:56;;;;;;;5.72;0.60;;;;;;;7.93;100.00;97905.69;6091282;23;20013;-85